createdAt,value
2024-05-09T00:02:57.542Z,100921.25
2024-05-09T00:06:00.268Z,100922.81
2024-05-09T00:09:03.070Z,100922.47
2024-05-09T00:12:05.718Z,100917.31
2024-05-09T00:15:08.715Z,100926.75
2024-05-09T00:18:11.449Z,100924.00
2024-05-09T00:21:14.179Z,100929.53
2024-05-09T00:24:16.710Z,100919.28
2024-05-09T00:27:19.335Z,100916.91
2024-05-09T00:30:31.046Z,100917.28
2024-05-09T00:33:37.433Z,100935.00
2024-05-09T00:36:40.059Z,100923.56
2024-05-09T00:39:42.637Z,100927.91
2024-05-09T00:42:47.205Z,100929.09
2024-05-09T00:45:49.778Z,100917.66
2024-05-09T00:48:52.542Z,100923.16
2024-05-09T00:51:56.324Z,100922.78
2024-05-09T00:54:59.846Z,100927.88
2024-05-09T00:58:03.376Z,100909.81
2024-05-09T01:01:06.623Z,100907.47
2024-05-09T01:04:09.443Z,100913.72
2024-05-09T01:07:12.904Z,100914.16
2024-05-09T01:10:21.216Z,100926.75
2024-05-09T01:13:30.232Z,100909.41
2024-05-09T01:16:33.264Z,100907.06
2024-05-09T01:19:35.979Z,100914.91
2024-05-09T01:22:39.370Z,100924.38
2024-05-09T01:25:41.944Z,100910.16
2024-05-09T01:28:44.581Z,100915.28
2024-05-09T01:31:47.781Z,100930.25
2024-05-09T01:34:50.487Z,100929.81
2024-05-09T01:37:53.179Z,100939.63
2024-05-09T01:40:55.891Z,100931.31
2024-05-09T01:43:58.469Z,100925.84
2024-05-09T01:47:01.076Z,100929.41
2024-05-09T01:50:06.615Z,100921.53
2024-05-09T01:53:13.854Z,100936.47
2024-05-09T01:56:17.074Z,100916.41
2024-05-09T01:59:20.460Z,100931.38
2024-05-09T02:02:23.135Z,100927.03
2024-05-09T02:05:25.816Z,100928.63
2024-05-09T02:08:28.482Z,100924.31
2024-05-09T02:11:31.110Z,100923.06
2024-05-09T02:14:33.831Z,100932.53
2024-05-09T02:17:36.561Z,100922.69
2024-05-09T02:20:40.810Z,100932.13
2024-05-09T02:23:43.603Z,100916.38
2024-05-09T02:26:46.363Z,100938.78
2024-05-09T02:29:48.924Z,100930.50
2024-05-09T02:32:51.593Z,100919.47
2024-05-09T02:35:54.193Z,100934.06
2024-05-09T02:38:56.747Z,100917.50
2024-05-09T02:41:59.310Z,100931.22
2024-05-09T02:45:02.140Z,100926.16
2024-05-09T02:48:05.347Z,100934.81
2024-05-09T02:51:08.246Z,100913.94
2024-05-09T02:54:12.602Z,100932.44
2024-05-09T02:57:15.162Z,100923.78
2024-05-09T03:00:22.830Z,100917.84
2024-05-09T03:03:31.758Z,100920.97
2024-05-09T03:06:34.481Z,100924.50
2024-05-09T03:09:36.992Z,100920.56
2024-05-09T03:12:39.594Z,100933.09
2024-05-09T03:15:42.833Z,100930.34
2024-05-09T03:18:45.950Z,100924.44
2024-05-09T03:21:48.521Z,100946.47
2024-05-09T03:24:51.160Z,100933.44
2024-05-09T03:27:53.837Z,100931.84
2024-05-09T03:30:56.429Z,100925.97
2024-05-09T03:33:59.135Z,100934.63
2024-05-09T03:37:01.811Z,100917.75
2024-05-09T03:40:09.190Z,100919.31
2024-05-09T03:43:14.672Z,100937.41
2024-05-09T03:46:17.450Z,100927.94
2024-05-09T03:49:20.222Z,100931.09
2024-05-09T03:52:22.803Z,100927.53
2024-05-09T03:55:25.361Z,100918.91
2024-05-09T03:58:27.894Z,100920.88
2024-05-09T04:01:30.532Z,100922.81
2024-05-09T04:04:33.320Z,100927.94
2024-05-09T04:07:37.448Z,100927.63
2024-05-09T04:10:40.709Z,100927.63
2024-05-09T04:13:43.522Z,100930.00
2024-05-09T04:16:46.124Z,100916.63
2024-05-09T04:19:48.682Z,100918.94
2024-05-09T04:22:52.102Z,100937.41
2024-05-09T04:25:54.900Z,100930.69
2024-05-09T04:28:57.468Z,100929.94
2024-05-09T04:32:00.129Z,100947.63
2024-05-09T04:35:03.067Z,100954.69
2024-05-09T04:38:06.245Z,100941.31
2024-05-09T04:41:09.078Z,100946.38
2024-05-09T04:44:11.681Z,100962.16
2024-05-09T04:47:14.381Z,100948.75
2024-05-09T04:50:24.676Z,100968.84
2024-05-09T04:53:32.130Z,100968.41
2024-05-09T04:56:34.799Z,100972.78
2024-05-09T04:59:37.451Z,100980.25
2024-05-09T05:02:40.200Z,100962.09
2024-05-09T05:05:44.580Z,100969.25
2024-05-09T05:08:48.100Z,100979.53
2024-05-09T05:11:50.765Z,100973.59
2024-05-09T05:14:53.495Z,100976.34
2024-05-09T05:17:58.243Z,100973.59
2024-05-09T05:21:01.271Z,100980.66
2024-05-09T05:24:04.106Z,100975.97
2024-05-09T05:27:06.769Z,100962.16
2024-05-09T05:30:14.772Z,100986.59
2024-05-09T05:33:23.738Z,100984.97
2024-05-09T05:36:26.495Z,100968.41
2024-05-09T05:39:29.247Z,100983.41
2024-05-09T05:42:31.793Z,101005.03
2024-05-09T05:45:34.497Z,100995.56
2024-05-09T05:48:37.172Z,101000.75
2024-05-09T05:51:39.829Z,101007.44
2024-05-09T05:54:42.359Z,100997.59
2024-05-09T05:57:45.441Z,101001.91
2024-05-09T06:00:48.269Z,100987.72
2024-05-09T06:03:51.494Z,101003.16
2024-05-09T06:06:54.500Z,101003.13
2024-05-09T06:09:57.039Z,101008.28
2024-05-09T06:12:59.581Z,101011.84
2024-05-09T06:16:04.843Z,101011.84
2024-05-09T06:19:07.411Z,101003.25
2024-05-09T06:22:11.128Z,101015.84
2024-05-09T06:25:14.051Z,101024.50
2024-05-09T06:28:16.568Z,101025.22
2024-05-09T06:31:21.166Z,101038.63
2024-05-09T06:34:24.319Z,101030.34
2024-05-09T06:37:26.967Z,101041.00
2024-05-09T06:40:36.914Z,101046.09
2024-05-09T06:43:42.354Z,101044.16
2024-05-09T06:46:46.689Z,101039.41
2024-05-09T06:49:52.538Z,101057.50
2024-05-09T06:52:55.250Z,101054.41
2024-05-09T06:55:58.358Z,101059.91
2024-05-09T06:59:01.070Z,101033.13
2024-05-09T07:02:04.833Z,101052.06
2024-05-09T07:05:07.660Z,101033.53
2024-05-09T07:08:10.509Z,101061.88
2024-05-09T07:11:13.305Z,101045.50
2024-05-09T07:14:15.907Z,101057.44
2024-05-09T07:17:18.742Z,101054.88
2024-05-09T07:20:32.168Z,101055.06
2024-05-09T07:23:37.583Z,101048.88
2024-05-09T07:26:40.349Z,101049.72
2024-05-09T07:29:43.202Z,101048.56
2024-05-09T07:32:46.214Z,101046.28
2024-05-09T07:35:49.099Z,101047.50
2024-05-09T07:38:51.880Z,101044.41
2024-05-09T07:41:57.513Z,101036.56
2024-05-09T07:45:14.914Z,101040.50
2024-05-09T07:54:34.528Z,101036.22
2024-05-09T07:57:37.482Z,101031.50
2024-05-09T08:00:40.373Z,101024.81
2024-05-09T08:03:43.198Z,101035.81
2024-05-09T08:06:46.176Z,101032.69
2024-05-09T08:09:49.056Z,101030.34
2024-05-09T08:12:54.057Z,101033.47
2024-05-09T08:15:56.764Z,101041.31
2024-05-09T08:18:59.526Z,101037.38
2024-05-09T08:22:07.136Z,101026.38
2024-05-09T08:25:11.895Z,101027.16
2024-05-09T08:28:16.470Z,101021.66
2024-05-09T08:31:21.991Z,101024.81
2024-05-09T08:34:25.709Z,101017.34
2024-05-09T08:37:32.861Z,101027.94
2024-05-09T08:40:39.607Z,101021.25
2024-05-09T08:43:44.283Z,101016.16
2024-05-09T08:46:48.773Z,101014.19
2024-05-09T08:49:51.964Z,100998.44
2024-05-09T08:52:54.643Z,101032.66
2024-05-09T08:56:01.508Z,101016.91
2024-05-09T08:59:06.840Z,101033.84
2024-05-09T09:02:12.449Z,101020.47
2024-05-09T09:05:21.472Z,101031.09
2024-05-09T09:08:24.828Z,101029.13
2024-05-09T09:11:27.641Z,101024.78
2024-05-09T09:14:30.263Z,101016.91
2024-05-09T09:17:33.095Z,101017.31
2024-05-09T09:20:37.335Z,101024.78
2024-05-09T09:23:40.083Z,101014.56
2024-05-09T09:26:45.128Z,101015.34
2024-05-09T09:29:49.620Z,101016.13
2024-05-09T09:32:52.546Z,101014.16
2024-05-09T09:35:55.221Z,101025.56
2024-05-09T09:38:57.930Z,101012.59
2024-05-09T09:42:01.249Z,101023.59
2024-05-09T09:45:07.375Z,101016.13
2024-05-09T09:48:10.925Z,101018.47
2024-05-09T09:51:14.058Z,101016.91
2024-05-09T09:54:18.042Z,101017.28
2024-05-09T09:57:20.696Z,101016.91
2024-05-09T10:00:29.947Z,101014.53
2024-05-09T10:03:35.742Z,101010.59
2024-05-09T10:06:44.089Z,101007.06
2024-05-09T10:09:47.149Z,101004.72
2024-05-09T10:13:08.863Z,101001.53
2024-05-09T10:16:20.643Z,101011.00
2024-05-09T10:19:27.330Z,100992.47
2024-05-09T10:22:31.027Z,100987.75
2024-05-09T10:25:36.527Z,101001.91
2024-05-09T10:28:44.082Z,101004.28
2024-05-09T10:31:47.519Z,100985.41
2024-05-09T10:35:15.085Z,100989.72
2024-05-09T10:38:18.081Z,100986.19
2024-05-09T10:41:25.289Z,100975.19
2024-05-09T10:44:28.613Z,100975.19
2024-05-09T10:47:31.523Z,100987.38
2024-05-09T10:50:34.761Z,100966.94
2024-05-09T10:53:45.033Z,100977.56
2024-05-09T10:56:56.154Z,100974.00
2024-05-09T11:03:02.387Z,100964.97
2024-05-09T11:06:05.798Z,100964.19
2024-05-09T11:09:08.917Z,100962.22
2024-05-09T11:12:14.306Z,100955.16
2024-05-09T11:15:17.603Z,100961.81
2024-05-09T11:18:25.889Z,100948.06
2024-05-09T11:21:29.687Z,100941.78
2024-05-09T11:24:33.201Z,100939.81
2024-05-09T11:27:36.041Z,100949.25
2024-05-09T11:30:38.724Z,100937.06
2024-05-09T11:33:44.053Z,100948.84
2024-05-09T11:36:47.374Z,100933.91
2024-05-09T11:39:50.159Z,100942.56
2024-05-09T11:42:53.383Z,100928.44
2024-05-09T11:45:59.738Z,100925.69
2024-05-09T11:49:02.746Z,100921.34
2024-05-09T11:52:05.615Z,100928.81
2024-05-09T11:55:08.920Z,100930.00
2024-05-09T11:58:17.532Z,100931.19
2024-05-09T12:01:22.169Z,100920.19
2024-05-09T12:04:26.453Z,100922.94
2024-05-09T12:07:29.273Z,100921.34
2024-05-09T12:10:34.475Z,100904.47
2024-05-09T12:13:38.531Z,100895.81
2024-05-09T12:16:41.410Z,100909.97
2024-05-09T12:19:44.156Z,100897.38
2024-05-09T12:22:47.651Z,100888.75
2024-05-09T12:25:50.229Z,100903.69
2024-05-09T12:28:52.866Z,100902.09
2024-05-09T12:31:55.550Z,100901.31
2024-05-09T12:34:58.129Z,100902.09
2024-05-09T12:38:00.839Z,100900.13
2024-05-09T12:41:03.501Z,100902.88
2024-05-09T12:44:06.194Z,100888.34
2024-05-09T12:47:08.738Z,100886.78
2024-05-09T12:50:21.828Z,100881.28
2024-05-09T12:53:27.953Z,100863.59
2024-05-09T12:56:30.767Z,100870.66
2024-05-09T12:59:33.362Z,100885.59
2024-05-09T13:02:36.285Z,100871.47
2024-05-09T13:05:41.660Z,100873.03
2024-05-09T13:08:44.517Z,100884.81
2024-05-09T13:11:47.142Z,100880.88
2024-05-09T13:14:49.768Z,100865.56
2024-05-09T13:17:52.911Z,100875.00
2024-05-09T13:20:56.198Z,100871.47
2024-05-09T13:24:00.343Z,100869.91
2024-05-09T13:27:03.190Z,100860.47
2024-05-09T13:30:11.857Z,100865.97
2024-05-09T13:33:17.380Z,100863.22
2024-05-09T13:36:20.032Z,100852.22
2024-05-09T13:39:22.593Z,100855.75
2024-05-09T13:42:25.296Z,100843.59
2024-05-09T13:45:27.868Z,100846.72
2024-05-09T13:48:30.746Z,100841.25
2024-05-09T13:51:33.388Z,100855.34
2024-05-09T13:54:38.490Z,100850.63
2024-05-09T13:57:41.153Z,100838.09
2024-05-09T14:00:48.188Z,100833.00
2024-05-09T14:03:52.015Z,100838.84
2024-05-09T14:06:54.870Z,100836.91
2024-05-09T14:09:57.499Z,100844.34
2024-05-09T14:13:01.271Z,100840.03
2024-05-09T14:16:04.509Z,100845.53
2024-05-09T14:19:07.215Z,100835.31
2024-05-09T14:22:10.104Z,100840.81
2024-05-09T14:25:13.165Z,100832.56
2024-05-09T14:28:15.896Z,100824.31
2024-05-09T14:31:18.490Z,100830.25
2024-05-09T14:34:21.365Z,100824.75
2024-05-09T14:37:24.068Z,100823.19
2024-05-09T14:40:37.033Z,100828.25
2024-05-09T14:43:46.696Z,100819.63
2024-05-09T14:46:49.426Z,100824.75
2024-05-09T14:49:52.136Z,100830.25
2024-05-09T14:52:54.777Z,100822.75
2024-05-09T14:55:57.870Z,100812.97
2024-05-09T14:59:00.533Z,100804.72
2024-05-09T15:02:05.950Z,100820.81
2024-05-09T15:05:11.142Z,100823.19
2024-05-09T15:08:13.893Z,100816.50
2024-05-09T15:11:16.500Z,100807.06
2024-05-09T15:14:19.105Z,100806.28
2024-05-09T15:17:21.705Z,100803.94
2024-05-09T15:20:31.575Z,100802.75
2024-05-09T15:23:38.140Z,100800.78
2024-05-09T15:26:40.746Z,100798.44
2024-05-09T15:29:43.360Z,100796.06
2024-05-09T15:32:46.120Z,100795.28
2024-05-09T15:35:51.105Z,100785.09
2024-05-09T15:38:55.395Z,100784.69
2024-05-09T15:41:57.982Z,100792.53
2024-05-09T15:45:01.508Z,100800.00
2024-05-09T15:48:05.588Z,100780.78
2024-05-09T15:51:08.400Z,100787.06
2024-05-09T15:54:11.308Z,100791.38
2024-05-09T15:57:14.015Z,100788.22
2024-05-09T16:00:24.918Z,100792.16
2024-05-09T16:03:36.608Z,100778.81
2024-05-09T16:06:39.779Z,100791.75
2024-05-09T16:09:42.424Z,100785.88
2024-05-09T16:12:45.122Z,100784.69
2024-05-09T16:15:47.965Z,100792.16
2024-05-09T16:18:50.824Z,100790.97
2024-05-09T16:21:53.438Z,100793.72
2024-05-09T16:24:56.213Z,100791.38
2024-05-09T16:27:59.106Z,100778.41
2024-05-09T16:31:02.546Z,100788.22
2024-05-09T16:34:05.365Z,100787.84
2024-05-09T16:37:10.403Z,100793.72
2024-05-09T16:40:22.007Z,100782.34
2024-05-09T16:43:32.772Z,100782.34
2024-05-09T16:46:35.421Z,100785.47
2024-05-09T16:49:38.018Z,100776.44
2024-05-09T16:52:40.579Z,100794.13
2024-05-09T16:55:43.193Z,100791.34
2024-05-09T16:58:45.907Z,100794.13
2024-05-09T17:01:48.564Z,100792.53
2024-05-09T17:04:51.416Z,100787.44
2024-05-09T17:07:54.072Z,100783.91
2024-05-09T17:10:56.767Z,100781.16
2024-05-09T17:13:59.888Z,100799.59
2024-05-09T17:17:02.730Z,100798.41
2024-05-09T17:20:18.767Z,100793.72
2024-05-09T17:23:29.229Z,100795.28
2024-05-09T17:26:32.585Z,100790.97
2024-05-09T17:29:35.378Z,100807.06
2024-05-09T17:32:38.037Z,100788.97
2024-05-09T17:35:40.812Z,100802.34
2024-05-09T17:38:46.679Z,100804.69
2024-05-09T17:41:50.247Z,100814.09
2024-05-09T17:44:53.497Z,100799.19
2024-05-09T17:47:56.285Z,100810.56
2024-05-09T17:50:58.904Z,100815.28
2024-05-09T17:54:01.536Z,100809.34
2024-05-09T17:57:04.394Z,100830.19
2024-05-09T18:00:11.550Z,100817.19
2024-05-09T18:03:17.454Z,100834.88
2024-05-09T18:06:20.186Z,100811.28
2024-05-09T18:09:22.788Z,100827.00
2024-05-09T18:12:25.465Z,100837.19
2024-05-09T18:15:28.059Z,100825.41
2024-05-09T18:18:30.729Z,100819.50
2024-05-09T18:21:33.596Z,100842.28
2024-05-09T18:24:36.263Z,100846.19
2024-05-09T18:27:38.966Z,100843.03
2024-05-09T18:30:41.888Z,100843.81
2024-05-09T18:33:44.612Z,100863.03
2024-05-09T18:36:47.809Z,100862.66
2024-05-09T18:39:50.560Z,100863.03
2024-05-09T18:42:53.171Z,100866.56
2024-05-09T18:45:55.796Z,100874.00
2024-05-09T18:48:58.532Z,100875.94
2024-05-09T18:52:01.355Z,100877.09
2024-05-09T18:55:05.505Z,100871.59
2024-05-09T18:58:08.580Z,100875.91
2024-05-09T19:01:11.351Z,100885.34
2024-05-09T19:04:18.323Z,100888.47
2024-05-09T19:07:21.355Z,100899.03
2024-05-09T19:10:28.832Z,100901.00
2024-05-09T19:13:36.338Z,100887.25
2024-05-09T19:16:39.267Z,100901.34
2024-05-09T19:19:41.871Z,100894.66
2024-05-09T19:22:44.634Z,100903.31
2024-05-09T19:25:47.468Z,100899.34
2024-05-09T19:28:50.469Z,100919.75
2024-05-09T19:31:53.219Z,100921.31
2024-05-09T19:34:55.855Z,100922.09
2024-05-09T19:37:58.750Z,100933.06
2024-05-09T19:41:01.342Z,100934.25
2024-05-09T19:44:04.279Z,100931.47
2024-05-09T19:47:07.404Z,100932.63
2024-05-09T19:50:14.086Z,100938.50
2024-05-09T19:53:22.220Z,100940.03
2024-05-09T19:56:24.966Z,100951.81
2024-05-09T19:59:27.725Z,100949.84
2024-05-09T20:02:30.623Z,100955.72
2024-05-09T20:05:34.714Z,100951.41
2024-05-09T20:08:37.648Z,100949.41
2024-05-09T20:11:40.306Z,100942.69
2024-05-09T20:14:43.192Z,100958.81
2024-05-09T20:17:46.206Z,100957.22
2024-05-09T20:20:51.646Z,100966.22
2024-05-09T20:23:56.410Z,100973.66
2024-05-09T20:26:59.146Z,100968.13
2024-05-09T20:30:01.879Z,100974.81
2024-05-09T20:33:07.371Z,100979.09
2024-05-09T20:36:11.531Z,100987.75
2024-05-09T20:39:14.101Z,100990.03
2024-05-09T20:42:16.773Z,101004.16
2024-05-09T20:45:19.626Z,100990.84
2024-05-09T20:48:22.398Z,101004.13
2024-05-09T20:51:26.057Z,100993.09
2024-05-09T20:54:29.371Z,101006.44
2024-05-09T20:57:32.180Z,101006.41
2024-05-09T21:00:40.032Z,101004.81
2024-05-09T21:03:47.527Z,101000.47
2024-05-09T21:06:50.210Z,100998.47
2024-05-09T21:09:52.830Z,101018.91
2024-05-09T21:12:55.475Z,101018.13
2024-05-09T21:15:58.152Z,101017.69
2024-05-09T21:19:00.911Z,101007.06
2024-05-09T21:22:03.621Z,101012.16
2024-05-09T21:25:06.295Z,101014.91
2024-05-09T21:28:08.932Z,101010.56
2024-05-09T21:31:11.531Z,101018.84
2024-05-09T21:34:14.147Z,101010.97
2024-05-09T21:37:16.848Z,101026.66
2024-05-09T21:40:27.351Z,101027.78
2024-05-09T21:43:38.015Z,101008.50
2024-05-09T21:46:40.842Z,101031.69
2024-05-09T21:49:43.427Z,101025.38
2024-05-09T21:52:45.990Z,101040.72
2024-05-09T21:55:48.512Z,101034.03
2024-05-09T21:58:51.099Z,101027.34
2024-05-09T22:01:53.704Z,101031.28
2024-05-09T22:04:56.478Z,101035.19
2024-05-09T22:07:59.081Z,101030.47
2024-05-09T22:11:01.729Z,101028.06
2024-05-09T22:14:04.306Z,101038.22
2024-05-09T22:17:06.907Z,101043.72
2024-05-09T22:20:17.996Z,101048.44
2024-05-09T22:23:24.626Z,101052.72
2024-05-09T22:26:27.175Z,101048.78
2024-05-09T22:29:29.732Z,101048.41
2024-05-09T22:32:32.320Z,101053.47
2024-05-09T22:35:34.971Z,101052.69
2024-05-09T22:38:37.523Z,101051.13
2024-05-09T22:41:41.089Z,101050.31
2024-05-09T22:44:43.610Z,101037.31
2024-05-09T22:47:46.170Z,101044.38
2024-05-09T22:50:48.788Z,101058.50
2024-05-09T22:53:51.340Z,101044.72
2024-05-09T22:56:53.839Z,101051.41
2024-05-09T22:59:56.364Z,101050.19
2024-05-09T23:03:02.301Z,101045.47
2024-05-09T23:06:06.436Z,101052.53
2024-05-09T23:09:09.992Z,101051.69
2024-05-09T23:12:17.653Z,101051.38
2024-05-09T23:15:20.220Z,101055.25
2024-05-09T23:18:22.931Z,101055.25
2024-05-09T23:21:25.597Z,101053.28
2024-05-09T23:24:28.139Z,101043.44
2024-05-09T23:27:30.664Z,101050.91
2024-05-09T23:30:38.176Z,101050.13
2024-05-09T23:33:47.114Z,101057.91
2024-05-09T23:36:49.910Z,101046.13
2024-05-09T23:39:53.451Z,101053.59
2024-05-09T23:42:56.064Z,101055.19
2024-05-09T23:45:58.659Z,101042.56
2024-05-09T23:49:01.313Z,101047.25
2024-05-09T23:52:04.342Z,101055.94
2024-05-09T23:55:09.697Z,101048.88
2024-05-09T23:58:12.368Z,101045.34
